sensor_id;sensor_type;location;lat;lon;timestamp;temperature;humidity
25320;DHT22;13256;49.012;8.610;2023-05-16T00:02:28;13.90;99.90
25320;DHT22;13256;49.012;8.610;2023-05-16T00:04:58;13.90;99.90
25320;DHT22;13256;49.012;8.610;2023-05-16T00:07:25;13.80;99.90
25320;DHT22;13256;49.012;8.610;2023-05-16T00:19:12;13.70;99.90
25320;DHT22;13256;49.012;8.610;2023-05-16T00:21:43;13.70;99.90
25320;DHT22;13256;49.012;8.610;2023-05-16T00:24:10;13.70;99.90
25320;DHT22;13256;49.012;8.610;2023-05-16T00:26:42;13.60;99.90
25320;DHT22;13256;49.012;8.610;2023-05-16T00:29:13;13.60;99.90
25320;DHT22;13256;49.012;8.610;2023-05-16T00:32:07;13.60;99.90
25320;DHT22;13256;49.012;8.610;2023-05-16T00:34:38;13.60;99.90
25320;DHT22;13256;49.012;8.610;2023-05-16T00:37:34;13.60;99.90
25320;DHT22;13256;49.012;8.610;2023-05-16T00:40:03;13.60;99.90
25320;DHT22;13256;49.012;8.610;2023-05-16T00:42:35;13.60;99.90
25320;DHT22;13256;49.012;8.610;2023-05-16T00:45:07;13.50;99.90
25320;DHT22;13256;49.012;8.610;2023-05-16T00:47:39;13.50;99.90
25320;DHT22;13256;49.012;8.610;2023-05-16T00:50:16;13.50;99.90
25320;DHT22;13256;49.012;8.610;2023-05-16T00:52:56;13.40;99.90
25320;DHT22;13256;49.012;8.610;2023-05-16T00:55:22;13.40;99.90
25320;DHT22;13256;49.012;8.610;2023-05-16T00:57:53;13.40;99.90
25320;DHT22;13256;49.012;8.610;2023-05-16T01:00:23;13.40;99.90
25320;DHT22;13256;49.012;8.610;2023-05-16T01:02:55;13.40;99.90
25320;DHT22;13256;49.012;8.610;2023-05-16T01:05:53;13.50;99.90
25320;DHT22;13256;49.012;8.610;2023-05-16T01:08:57;13.50;99.90
25320;DHT22;13256;49.012;8.610;2023-05-16T01:11:49;13.50;99.90
25320;DHT22;13256;49.012;8.610;2023-05-16T01:20:47;13.40;99.90
25320;DHT22;13256;49.012;8.610;2023-05-16T01:24:02;13.40;99.90
25320;DHT22;13256;49.012;8.610;2023-05-16T01:26:33;13.40;99.90
25320;DHT22;13256;49.012;8.610;2023-05-16T01:29:04;13.40;99.90
25320;DHT22;13256;49.012;8.610;2023-05-16T01:31:37;13.30;99.90
25320;DHT22;13256;49.012;8.610;2023-05-16T01:34:04;13.30;99.90
25320;DHT22;13256;49.012;8.610;2023-05-16T01:36:41;13.30;99.90
25320;DHT22;13256;49.012;8.610;2023-05-16T01:39:51;13.30;99.90
25320;DHT22;13256;49.012;8.610;2023-05-16T01:45:47;13.20;99.90
25320;DHT22;13256;49.012;8.610;2023-05-16T01:48:21;13.20;99.90
25320;DHT22;13256;49.012;8.610;2023-05-16T01:51:23;13.20;99.90
25320;DHT22;13256;49.012;8.610;2023-05-16T01:54:04;13.10;99.90
25320;DHT22;13256;49.012;8.610;2023-05-16T01:56:32;13.10;99.90
25320;DHT22;13256;49.012;8.610;2023-05-16T01:59:01;13.10;99.90
25320;DHT22;13256;49.012;8.610;2023-05-16T02:01:34;13.20;99.90
25320;DHT22;13256;49.012;8.610;2023-05-16T02:04:05;13.20;99.90
25320;DHT22;13256;49.012;8.610;2023-05-16T02:06:33;13.10;99.90
25320;DHT22;13256;49.012;8.610;2023-05-16T02:09:02;13.10;99.90
25320;DHT22;13256;49.012;8.610;2023-05-16T02:11:29;13.20;99.90
25320;DHT22;13256;49.012;8.610;2023-05-16T02:13:59;13.20;99.90
25320;DHT22;13256;49.012;8.610;2023-05-16T02:16:54;13.20;99.90
25320;DHT22;13256;49.012;8.610;2023-05-16T02:19:22;13.20;99.90
25320;DHT22;13256;49.012;8.610;2023-05-16T02:21:55;13.20;99.90
25320;DHT22;13256;49.012;8.610;2023-05-16T02:24:27;13.20;99.90
25320;DHT22;13256;49.012;8.610;2023-05-16T02:27:24;13.20;99.90
25320;DHT22;13256;49.012;8.610;2023-05-16T02:29:52;13.20;99.90
25320;DHT22;13256;49.012;8.610;2023-05-16T02:32:22;13.20;99.90
25320;DHT22;13256;49.012;8.610;2023-05-16T02:34:51;13.20;99.90
25320;DHT22;13256;49.012;8.610;2023-05-16T02:37:27;13.20;99.90
25320;DHT22;13256;49.012;8.610;2023-05-16T02:39:55;13.20;99.90
25320;DHT22;13256;49.012;8.610;2023-05-16T02:42:25;13.20;99.90
25320;DHT22;13256;49.012;8.610;2023-05-16T02:44:57;13.10;99.90
25320;DHT22;13256;49.012;8.610;2023-05-16T02:47:54;13.20;99.90
25320;DHT22;13256;49.012;8.610;2023-05-16T02:50:20;13.10;99.90
25320;DHT22;13256;49.012;8.610;2023-05-16T02:52:49;13.10;99.90
25320;DHT22;13256;49.012;8.610;2023-05-16T02:55:16;13.20;99.90
25320;DHT22;13256;49.012;8.610;2023-05-16T02:57:50;13.20;99.90
25320;DHT22;13256;49.012;8.610;2023-05-16T03:00:22;13.10;99.90
25320;DHT22;13256;49.012;8.610;2023-05-16T03:02:49;13.10;99.90
25320;DHT22;13256;49.012;8.610;2023-05-16T03:05:23;13.10;99.90
25320;DHT22;13256;49.012;8.610;2023-05-16T03:07:56;13.00;99.90
25320;DHT22;13256;49.012;8.610;2023-05-16T03:10:23;13.00;99.90
25320;DHT22;13256;49.012;8.610;2023-05-16T03:12:52;13.00;99.90
25320;DHT22;13256;49.012;8.610;2023-05-16T03:15:19;13.00;99.90
25320;DHT22;13256;49.012;8.610;2023-05-16T03:17:52;13.00;99.90
25320;DHT22;13256;49.012;8.610;2023-05-16T03:20:25;12.90;99.90
25320;DHT22;13256;49.012;8.610;2023-05-16T03:22:53;12.90;99.90
25320;DHT22;13256;49.012;8.610;2023-05-16T03:25:22;12.90;99.90
25320;DHT22;13256;49.012;8.610;2023-05-16T03:28:16;12.80;99.90
25320;DHT22;13256;49.012;8.610;2023-05-16T03:30:49;12.90;99.90
25320;DHT22;13256;49.012;8.610;2023-05-16T03:33:43;12.80;99.90
25320;DHT22;13256;49.012;8.610;2023-05-16T03:36:10;12.80;99.90
25320;DHT22;13256;49.012;8.610;2023-05-16T03:38:40;12.70;99.90
25320;DHT22;13256;49.012;8.610;2023-05-16T03:41:13;12.70;99.90
25320;DHT22;13256;49.012;8.610;2023-05-16T03:43:43;12.70;99.90
25320;DHT22;13256;49.012;8.610;2023-05-16T03:46:20;12.70;99.90
25320;DHT22;13256;49.012;8.610;2023-05-16T03:48:51;12.70;99.90
25320;DHT22;13256;49.012;8.610;2023-05-16T03:54:35;12.70;99.90
25320;DHT22;13256;49.012;8.610;2023-05-16T04:05:50;12.60;99.90
25320;DHT22;13256;49.012;8.610;2023-05-16T04:08:18;12.60;99.90
25320;DHT22;13256;49.012;8.610;2023-05-16T04:10:45;12.50;99.90
25320;DHT22;13256;49.012;8.610;2023-05-16T04:13:15;12.50;99.90
25320;DHT22;13256;49.012;8.610;2023-05-16T04:15:43;12.50;99.90
25320;DHT22;13256;49.012;8.610;2023-05-16T04:18:13;12.50;99.90
25320;DHT22;13256;49.012;8.610;2023-05-16T04:20:45;12.50;99.90
25320;DHT22;13256;49.012;8.610;2023-05-16T04:23:17;12.50;99.90
25320;DHT22;13256;49.012;8.610;2023-05-16T04:25:44;12.50;99.90
25320;DHT22;13256;49.012;8.610;2023-05-16T04:28:20;12.50;99.90
25320;DHT22;13256;49.012;8.610;2023-05-16T04:30:48;12.50;99.90
25320;DHT22;13256;49.012;8.610;2023-05-16T04:33:19;12.50;99.90
25320;DHT22;13256;49.012;8.610;2023-05-16T04:35:46;12.50;99.90
25320;DHT22;13256;49.012;8.610;2023-05-16T04:38:17;12.40;99.90
25320;DHT22;13256;49.012;8.610;2023-05-16T04:40:46;12.40;99.90
25320;DHT22;13256;49.012;8.610;2023-05-16T04:43:17;12.50;99.90
25320;DHT22;13256;49.012;8.610;2023-05-16T04:45:50;12.40;99.90
25320;DHT22;13256;49.012;8.610;2023-05-16T04:48:22;12.40;99.90
25320;DHT22;13256;49.012;8.610;2023-05-16T04:50:49;12.30;99.90
25320;DHT22;13256;49.012;8.610;2023-05-16T04:53:20;12.30;99.90
25320;DHT22;13256;49.012;8.610;2023-05-16T04:55:58;12.30;99.90
25320;DHT22;13256;49.012;8.610;2023-05-16T04:59:19;12.20;99.90
25320;DHT22;13256;49.012;8.610;2023-05-16T05:01:48;12.30;99.90
25320;DHT22;13256;49.012;8.610;2023-05-16T05:04:15;12.20;99.90
25320;DHT22;13256;49.012;8.610;2023-05-16T05:06:43;12.20;99.90
25320;DHT22;13256;49.012;8.610;2023-05-16T05:09:13;12.20;99.90
25320;DHT22;13256;49.012;8.610;2023-05-16T05:11:41;12.20;99.90
25320;DHT22;13256;49.012;8.610;2023-05-16T05:14:08;12.20;99.90
25320;DHT22;13256;49.012;8.610;2023-05-16T05:16:35;12.10;99.90
25320;DHT22;13256;49.012;8.610;2023-05-16T05:19:06;12.20;99.90
25320;DHT22;13256;49.012;8.610;2023-05-16T05:21:40;12.10;99.90
25320;DHT22;13256;49.012;8.610;2023-05-16T05:24:07;12.10;99.90
25320;DHT22;13256;49.012;8.610;2023-05-16T05:26:41;12.20;99.90
25320;DHT22;13256;49.012;8.610;2023-05-16T05:29:14;12.20;99.90
25320;DHT22;13256;49.012;8.610;2023-05-16T05:31:44;12.20;99.90
25320;DHT22;13256;49.012;8.610;2023-05-16T05:34:13;12.20;99.90
25320;DHT22;13256;49.012;8.610;2023-05-16T05:36:40;12.20;99.90
25320;DHT22;13256;49.012;8.610;2023-05-16T05:39:11;12.30;99.90
25320;DHT22;13256;49.012;8.610;2023-05-16T05:41:39;12.20;99.90
25320;DHT22;13256;49.012;8.610;2023-05-16T05:44:09;12.20;99.90
25320;DHT22;13256;49.012;8.610;2023-05-16T05:47:05;12.20;99.90
25320;DHT22;13256;49.012;8.610;2023-05-16T05:49:33;12.10;99.90
25320;DHT22;13256;49.012;8.610;2023-05-16T05:52:04;12.10;99.90
25320;DHT22;13256;49.012;8.610;2023-05-16T05:54:32;12.10;99.90
25320;DHT22;13256;49.012;8.610;2023-05-16T05:57:26;12.20;99.90
25320;DHT22;13256;49.012;8.610;2023-05-16T05:59:56;12.20;99.90
25320;DHT22;13256;49.012;8.610;2023-05-16T06:02:23;12.20;99.90
25320;DHT22;13256;49.012;8.610;2023-05-16T06:04:51;12.20;99.90
25320;DHT22;13256;49.012;8.610;2023-05-16T06:07:18;12.20;99.90
25320;DHT22;13256;49.012;8.610;2023-05-16T06:09:45;12.20;99.90
25320;DHT22;13256;49.012;8.610;2023-05-16T06:12:15;12.20;99.90
25320;DHT22;13256;49.012;8.610;2023-05-16T06:14:42;12.30;99.90
25320;DHT22;13256;49.012;8.610;2023-05-16T06:17:11;12.20;99.90
25320;DHT22;13256;49.012;8.610;2023-05-16T06:19:40;12.20;99.90
25320;DHT22;13256;49.012;8.610;2023-05-16T06:22:08;12.20;99.90
25320;DHT22;13256;49.012;8.610;2023-05-16T06:24:38;12.20;99.90
25320;DHT22;13256;49.012;8.610;2023-05-16T06:27:05;12.20;99.90
25320;DHT22;13256;49.012;8.610;2023-05-16T06:29:32;12.20;99.90
25320;DHT22;13256;49.012;8.610;2023-05-16T06:32:00;12.20;99.90
25320;DHT22;13256;49.012;8.610;2023-05-16T06:34:56;12.20;99.90
25320;DHT22;13256;49.012;8.610;2023-05-16T06:37:23;12.20;99.90
25320;DHT22;13256;49.012;8.610;2023-05-16T06:39:54;12.20;99.90
25320;DHT22;13256;49.012;8.610;2023-05-16T06:42:22;12.20;99.90
25320;DHT22;13256;49.012;8.610;2023-05-16T06:44:49;12.20;99.90
25320;DHT22;13256;49.012;8.610;2023-05-16T06:47:16;12.30;99.90
25320;DHT22;13256;49.012;8.610;2023-05-16T06:49:49;12.40;99.90
25320;DHT22;13256;49.012;8.610;2023-05-16T06:52:21;12.40;99.90
25320;DHT22;13256;49.012;8.610;2023-05-16T06:55:09;12.40;99.90
25320;DHT22;13256;49.012;8.610;2023-05-16T06:57:42;12.40;99.90
25320;DHT22;13256;49.012;8.610;2023-05-16T07:00:11;12.50;99.90
25320;DHT22;13256;49.012;8.610;2023-05-16T07:02:40;12.50;99.90
25320;DHT22;13256;49.012;8.610;2023-05-16T07:05:34;12.50;99.90
25320;DHT22;13256;49.012;8.610;2023-05-16T07:08:04;12.60;99.90
25320;DHT22;13256;49.012;8.610;2023-05-16T07:10:40;12.60;99.90
25320;DHT22;13256;49.012;8.610;2023-05-16T07:13:10;12.60;99.90
25320;DHT22;13256;49.012;8.610;2023-05-16T07:15:39;12.70;99.90
25320;DHT22;13256;49.012;8.610;2023-05-16T07:18:09;12.70;99.90
25320;DHT22;13256;49.012;8.610;2023-05-16T07:20:36;12.80;99.90
25320;DHT22;13256;49.012;8.610;2023-05-16T07:23:05;12.80;99.90
25320;DHT22;13256;49.012;8.610;2023-05-16T07:25:38;12.80;99.90
25320;DHT22;13256;49.012;8.610;2023-05-16T07:28:08;12.90;99.90
25320;DHT22;13256;49.012;8.610;2023-05-16T07:30:38;12.90;99.90
25320;DHT22;13256;49.012;8.610;2023-05-16T07:33:12;12.90;99.90
25320;DHT22;13256;49.012;8.610;2023-05-16T07:35:39;13.00;99.90
25320;DHT22;13256;49.012;8.610;2023-05-16T07:38:06;13.00;99.90
25320;DHT22;13256;49.012;8.610;2023-05-16T07:40:33;13.00;99.90
25320;DHT22;13256;49.012;8.610;2023-05-16T07:43:02;13.00;99.90
25320;DHT22;13256;49.012;8.610;2023-05-16T07:45:31;12.90;99.90
25320;DHT22;13256;49.012;8.610;2023-05-16T07:48:01;13.00;99.90
25320;DHT22;13256;49.012;8.610;2023-05-16T07:50:27;13.00;99.90
25320;DHT22;13256;49.012;8.610;2023-05-16T07:53:00;13.00;99.90
25320;DHT22;13256;49.012;8.610;2023-05-16T07:55:30;13.10;99.90
25320;DHT22;13256;49.012;8.610;2023-05-16T07:57:57;13.10;99.90
25320;DHT22;13256;49.012;8.610;2023-05-16T08:00:24;13.20;99.90
25320;DHT22;13256;49.012;8.610;2023-05-16T08:02:53;13.20;99.90
25320;DHT22;13256;49.012;8.610;2023-05-16T08:05:20;13.20;99.90
25320;DHT22;13256;49.012;8.610;2023-05-16T08:13:40;13.20;99.90
25320;DHT22;13256;49.012;8.610;2023-05-16T08:16:07;13.30;99.90
25320;DHT22;13256;49.012;8.610;2023-05-16T08:18:39;13.40;99.90
25320;DHT22;13256;49.012;8.610;2023-05-16T08:21:08;13.40;99.90
25320;DHT22;13256;49.012;8.610;2023-05-16T08:23:37;13.50;99.90
25320;DHT22;13256;49.012;8.610;2023-05-16T08:26:08;13.50;99.90
25320;DHT22;13256;49.012;8.610;2023-05-16T08:28:34;13.50;99.90
25320;DHT22;13256;49.012;8.610;2023-05-16T08:31:26;13.40;99.90
25320;DHT22;13256;49.012;8.610;2023-05-16T08:33:53;13.40;99.90
25320;DHT22;13256;49.012;8.610;2023-05-16T08:36:24;13.40;99.90
25320;DHT22;13256;49.012;8.610;2023-05-16T08:38:52;13.40;99.90
25320;DHT22;13256;49.012;8.610;2023-05-16T08:41:45;13.50;99.90
25320;DHT22;13256;49.012;8.610;2023-05-16T08:44:14;13.40;99.90
25320;DHT22;13256;49.012;8.610;2023-05-16T08:46:51;13.40;99.90
25320;DHT22;13256;49.012;8.610;2023-05-16T08:49:21;13.40;99.90
25320;DHT22;13256;49.012;8.610;2023-05-16T08:52:20;13.40;99.90
25320;DHT22;13256;49.012;8.610;2023-05-16T08:54:49;13.40;99.90
25320;DHT22;13256;49.012;8.610;2023-05-16T08:57:41;13.40;99.90
25320;DHT22;13256;49.012;8.610;2023-05-16T09:00:12;13.40;99.90
25320;DHT22;13256;49.012;8.610;2023-05-16T09:02:46;13.30;99.90
25320;DHT22;13256;49.012;8.610;2023-05-16T09:05:14;13.40;99.90
25320;DHT22;13256;49.012;8.610;2023-05-16T09:07:48;13.40;99.90
25320;DHT22;13256;49.012;8.610;2023-05-16T09:10:18;13.40;99.90
25320;DHT22;13256;49.012;8.610;2023-05-16T09:12:48;13.40;99.90
25320;DHT22;13256;49.012;8.610;2023-05-16T09:15:17;13.40;99.90
25320;DHT22;13256;49.012;8.610;2023-05-16T09:17:46;13.30;99.90
25320;DHT22;13256;49.012;8.610;2023-05-16T09:20:18;13.20;99.90
25320;DHT22;13256;49.012;8.610;2023-05-16T09:22:53;13.20;99.90
25320;DHT22;13256;49.012;8.610;2023-05-16T09:25:25;13.10;99.90
25320;DHT22;13256;49.012;8.610;2023-05-16T09:28:01;13.10;99.90
25320;DHT22;13256;49.012;8.610;2023-05-16T09:30:32;13.10;99.90
25320;DHT22;13256;49.012;8.610;2023-05-16T09:33:01;13.20;99.90
25320;DHT22;13256;49.012;8.610;2023-05-16T09:35:30;13.20;99.90
25320;DHT22;13256;49.012;8.610;2023-05-16T09:38:14;13.20;99.90
25320;DHT22;13256;49.012;8.610;2023-05-16T09:40:47;13.20;99.90
25320;DHT22;13256;49.012;8.610;2023-05-16T09:43:43;13.20;99.90
25320;DHT22;13256;49.012;8.610;2023-05-16T09:46:14;13.30;99.90
25320;DHT22;13256;49.012;8.610;2023-05-16T09:48:50;13.30;99.90
25320;DHT22;13256;49.012;8.610;2023-05-16T09:51:21;13.40;99.90
25320;DHT22;13256;49.012;8.610;2023-05-16T09:53:49;13.40;99.90
25320;DHT22;13256;49.012;8.610;2023-05-16T09:56:22;13.60;99.90
25320;DHT22;13256;49.012;8.610;2023-05-16T09:58:51;13.60;99.90
25320;DHT22;13256;49.012;8.610;2023-05-16T10:01:22;13.70;99.90
25320;DHT22;13256;49.012;8.610;2023-05-16T10:03:49;13.80;99.90
25320;DHT22;13256;49.012;8.610;2023-05-16T10:06:17;13.90;99.90
25320;DHT22;13256;49.012;8.610;2023-05-16T10:08:44;13.90;99.90
25320;DHT22;13256;49.012;8.610;2023-05-16T10:11:15;13.90;99.90
25320;DHT22;13256;49.012;8.610;2023-05-16T10:13:44;13.80;99.90
25320;DHT22;13256;49.012;8.610;2023-05-16T10:16:17;13.80;99.90
25320;DHT22;13256;49.012;8.610;2023-05-16T10:18:50;13.80;99.90
25320;DHT22;13256;49.012;8.610;2023-05-16T10:21:24;13.80;99.90
25320;DHT22;13256;49.012;8.610;2023-05-16T10:23:56;13.80;99.90
25320;DHT22;13256;49.012;8.610;2023-05-16T10:26:28;13.80;99.90
25320;DHT22;13256;49.012;8.610;2023-05-16T10:28:59;13.70;99.90
25320;DHT22;13256;49.012;8.610;2023-05-16T10:31:28;13.70;99.90
25320;DHT22;13256;49.012;8.610;2023-05-16T10:33:56;13.60;99.90
25320;DHT22;13256;49.012;8.610;2023-05-16T10:36:24;13.70;99.90
25320;DHT22;13256;49.012;8.610;2023-05-16T10:38:53;13.70;99.90
25320;DHT22;13256;49.012;8.610;2023-05-16T10:47:25;13.70;99.90
25320;DHT22;13256;49.012;8.610;2023-05-16T10:49:52;13.70;99.90
25320;DHT22;13256;49.012;8.610;2023-05-16T10:52:32;13.70;99.90
25320;DHT22;13256;49.012;8.610;2023-05-16T10:55:02;13.70;99.90
25320;DHT22;13256;49.012;8.610;2023-05-16T10:57:56;13.60;99.90
25320;DHT22;13256;49.012;8.610;2023-05-16T11:00:24;13.60;99.90
25320;DHT22;13256;49.012;8.610;2023-05-16T11:03:06;13.50;99.90
25320;DHT22;13256;49.012;8.610;2023-05-16T11:05:58;13.40;99.90
25320;DHT22;13256;49.012;8.610;2023-05-16T11:08:29;13.30;99.90
25320;DHT22;13256;49.012;8.610;2023-05-16T11:14:03;13.30;99.90
25320;DHT22;13256;49.012;8.610;2023-05-16T11:16:33;13.30;99.90
25320;DHT22;13256;49.012;8.610;2023-05-16T11:19:05;13.30;99.90
25320;DHT22;13256;49.012;8.610;2023-05-16T11:24:38;13.20;99.90
25320;DHT22;13256;49.012;8.610;2023-05-16T11:27:05;13.20;99.90
25320;DHT22;13256;49.012;8.610;2023-05-16T11:29:34;13.10;99.90
25320;DHT22;13256;49.012;8.610;2023-05-16T11:32:03;13.10;99.90
25320;DHT22;13256;49.012;8.610;2023-05-16T11:34:35;13.00;99.90
25320;DHT22;13256;49.012;8.610;2023-05-16T11:37:05;13.00;99.90
25320;DHT22;13256;49.012;8.610;2023-05-16T11:39:32;13.00;99.90
25320;DHT22;13256;49.012;8.610;2023-05-16T11:42:01;13.10;99.90
25320;DHT22;13256;49.012;8.610;2023-05-16T11:44:28;13.10;99.90
25320;DHT22;13256;49.012;8.610;2023-05-16T11:46:59;13.20;99.90
25320;DHT22;13256;49.012;8.610;2023-05-16T11:49:34;13.20;99.90
25320;DHT22;13256;49.012;8.610;2023-05-16T11:52:02;13.20;99.90
25320;DHT22;13256;49.012;8.610;2023-05-16T11:54:30;13.20;99.90
25320;DHT22;13256;49.012;8.610;2023-05-16T11:56:58;13.20;99.90
25320;DHT22;13256;49.012;8.610;2023-05-16T11:59:25;13.30;99.90
25320;DHT22;13256;49.012;8.610;2023-05-16T12:01:52;13.40;99.90
25320;DHT22;13256;49.012;8.610;2023-05-16T12:04:20;13.50;99.90
25320;DHT22;13256;49.012;8.610;2023-05-16T12:06:57;13.50;99.90
25320;DHT22;13256;49.012;8.610;2023-05-16T12:09:53;13.50;99.90
25320;DHT22;13256;49.012;8.610;2023-05-16T12:12:27;13.60;99.90
25320;DHT22;13256;49.012;8.610;2023-05-16T12:14:55;13.70;99.90
25320;DHT22;13256;49.012;8.610;2023-05-16T12:17:24;13.80;99.90
25320;DHT22;13256;49.012;8.610;2023-05-16T12:19:53;13.80;99.90
25320;DHT22;13256;49.012;8.610;2023-05-16T12:22:24;13.90;99.90
25320;DHT22;13256;49.012;8.610;2023-05-16T12:25:27;14.00;99.90
25320;DHT22;13256;49.012;8.610;2023-05-16T12:28:00;14.00;99.90
25320;DHT22;13256;49.012;8.610;2023-05-16T12:30:28;14.20;99.90
25320;DHT22;13256;49.012;8.610;2023-05-16T12:35:36;14.40;99.90
25320;DHT22;13256;49.012;8.610;2023-05-16T12:38:09;14.50;99.90
25320;DHT22;13256;49.012;8.610;2023-05-16T12:41:02;14.50;99.90
25320;DHT22;13256;49.012;8.610;2023-05-16T12:43:31;14.60;99.90
25320;DHT22;13256;49.012;8.610;2023-05-16T12:45:59;14.60;99.90
25320;DHT22;13256;49.012;8.610;2023-05-16T12:48:33;14.60;99.90
25320;DHT22;13256;49.012;8.610;2023-05-16T12:51:27;14.50;99.90
25320;DHT22;13256;49.012;8.610;2023-05-16T12:53:56;14.50;99.90
25320;DHT22;13256;49.012;8.610;2023-05-16T12:56:41;14.60;99.90
25320;DHT22;13256;49.012;8.610;2023-05-16T12:59:12;14.60;99.90
25320;DHT22;13256;49.012;8.610;2023-05-16T13:01:42;14.60;99.90
25320;DHT22;13256;49.012;8.610;2023-05-16T13:04:12;14.60;99.90
25320;DHT22;13256;49.012;8.610;2023-05-16T13:06:47;14.60;99.90
25320;DHT22;13256;49.012;8.610;2023-05-16T13:09:27;14.60;99.90
25320;DHT22;13256;49.012;8.610;2023-05-16T13:12:01;14.50;99.90
25320;DHT22;13256;49.012;8.610;2023-05-16T13:22:51;14.70;99.90
25320;DHT22;13256;49.012;8.610;2023-05-16T13:25:21;14.90;99.90
25320;DHT22;13256;49.012;8.610;2023-05-16T13:27:55;15.00;99.90
25320;DHT22;13256;49.012;8.610;2023-05-16T13:30:23;15.30;99.90
25320;DHT22;13256;49.012;8.610;2023-05-16T13:32:51;15.50;99.90
25320;DHT22;13256;49.012;8.610;2023-05-16T13:35:22;15.60;99.90
25320;DHT22;13256;49.012;8.610;2023-05-16T13:37:54;15.60;99.90
25320;DHT22;13256;49.012;8.610;2023-05-16T13:40:24;15.60;99.90
25320;DHT22;13256;49.012;8.610;2023-05-16T13:42:51;15.70;99.90
25320;DHT22;13256;49.012;8.610;2023-05-16T13:45:21;16.00;99.90
25320;DHT22;13256;49.012;8.610;2023-05-16T13:48:13;16.40;99.90
25320;DHT22;13256;49.012;8.610;2023-05-16T13:50:44;16.80;99.90
25320;DHT22;13256;49.012;8.610;2023-05-16T13:53:18;16.90;99.90
25320;DHT22;13256;49.012;8.610;2023-05-16T13:55:48;16.80;99.90
25320;DHT22;13256;49.012;8.610;2023-05-16T13:58:16;17.00;99.90
25320;DHT22;13256;49.012;8.610;2023-05-16T14:00:48;17.10;99.90
25320;DHT22;13256;49.012;8.610;2023-05-16T14:03:16;17.20;99.90
25320;DHT22;13256;49.012;8.610;2023-05-16T14:05:44;17.40;99.90
25320;DHT22;13256;49.012;8.610;2023-05-16T14:08:13;17.10;99.90
25320;DHT22;13256;49.012;8.610;2023-05-16T14:10:43;16.90;99.90
25320;DHT22;13256;49.012;8.610;2023-05-16T14:13:10;16.70;99.90
25320;DHT22;13256;49.012;8.610;2023-05-16T14:15:39;16.70;99.90
25320;DHT22;13256;49.012;8.610;2023-05-16T14:18:08;16.70;99.90
25320;DHT22;13256;49.012;8.610;2023-05-16T14:20:36;16.70;99.90
25320;DHT22;13256;49.012;8.610;2023-05-16T14:23:04;16.70;99.90
25320;DHT22;13256;49.012;8.610;2023-05-16T14:25:39;16.80;99.90
25320;DHT22;13256;49.012;8.610;2023-05-16T14:28:07;16.50;99.90
25320;DHT22;13256;49.012;8.610;2023-05-16T14:30:40;16.40;99.90
25320;DHT22;13256;49.012;8.610;2023-05-16T14:33:13;16.30;99.90
25320;DHT22;13256;49.012;8.610;2023-05-16T14:35:45;16.20;99.90
25320;DHT22;13256;49.012;8.610;2023-05-16T14:38:15;16.10;99.90
25320;DHT22;13256;49.012;8.610;2023-05-16T14:40:42;16.10;99.90
25320;DHT22;13256;49.012;8.610;2023-05-16T14:43:10;16.10;99.90
25320;DHT22;13256;49.012;8.610;2023-05-16T14:45:44;16.10;99.90
25320;DHT22;13256;49.012;8.610;2023-05-16T14:48:14;16.20;99.90
25320;DHT22;13256;49.012;8.610;2023-05-16T14:50:42;16.30;99.90
25320;DHT22;13256;49.012;8.610;2023-05-16T14:53:14;16.50;99.90
25320;DHT22;13256;49.012;8.610;2023-05-16T14:55:44;16.50;99.90
25320;DHT22;13256;49.012;8.610;2023-05-16T14:58:12;16.60;99.90
25320;DHT22;13256;49.012;8.610;2023-05-16T15:00:41;16.60;99.90
25320;DHT22;13256;49.012;8.610;2023-05-16T15:03:09;16.70;99.90
25320;DHT22;13256;49.012;8.610;2023-05-16T15:05:36;16.70;99.90
25320;DHT22;13256;49.012;8.610;2023-05-16T15:08:03;16.60;99.90
25320;DHT22;13256;49.012;8.610;2023-05-16T15:10:32;16.70;99.90
25320;DHT22;13256;49.012;8.610;2023-05-16T15:13:03;16.80;99.90
25320;DHT22;13256;49.012;8.610;2023-05-16T15:15:32;16.80;99.90
25320;DHT22;13256;49.012;8.610;2023-05-16T15:18:01;16.90;99.90
25320;DHT22;13256;49.012;8.610;2023-05-16T15:20:30;16.90;99.90
25320;DHT22;13256;49.012;8.610;2023-05-16T15:22:57;16.80;99.90
25320;DHT22;13256;49.012;8.610;2023-05-16T15:25:26;16.60;99.90
25320;DHT22;13256;49.012;8.610;2023-05-16T15:27:54;16.50;99.90
25320;DHT22;13256;49.012;8.610;2023-05-16T15:30:23;16.40;99.90
25320;DHT22;13256;49.012;8.610;2023-05-16T15:32:50;16.30;99.90
25320;DHT22;13256;49.012;8.610;2023-05-16T15:35:19;16.30;99.90
25320;DHT22;13256;49.012;8.610;2023-05-16T15:37:45;16.20;99.90
25320;DHT22;13256;49.012;8.610;2023-05-16T15:40:13;16.20;99.90
25320;DHT22;13256;49.012;8.610;2023-05-16T15:42:40;16.10;99.90
25320;DHT22;13256;49.012;8.610;2023-05-16T15:45:10;16.00;99.90
25320;DHT22;13256;49.012;8.610;2023-05-16T15:48:07;16.00;99.90
25320;DHT22;13256;49.012;8.610;2023-05-16T15:50:44;15.90;99.90
25320;DHT22;13256;49.012;8.610;2023-05-16T15:53:15;15.80;99.90
25320;DHT22;13256;49.012;8.610;2023-05-16T15:55:41;15.70;99.90
25320;DHT22;13256;49.012;8.610;2023-05-16T15:58:09;15.60;99.90
25320;DHT22;13256;49.012;8.610;2023-05-16T16:00:39;15.60;99.90
25320;DHT22;13256;49.012;8.610;2023-05-16T16:03:07;15.50;99.90
25320;DHT22;13256;49.012;8.610;2023-05-16T16:05:36;15.40;99.90
25320;DHT22;13256;49.012;8.610;2023-05-16T16:08:03;15.40;99.90
25320;DHT22;13256;49.012;8.610;2023-05-16T16:10:31;15.40;99.90
25320;DHT22;13256;49.012;8.610;2023-05-16T16:12:59;15.50;99.90
25320;DHT22;13256;49.012;8.610;2023-05-16T16:15:30;15.50;99.90
25320;DHT22;13256;49.012;8.610;2023-05-16T16:18:00;15.50;99.90
25320;DHT22;13256;49.012;8.610;2023-05-16T16:20:27;15.50;99.90
25320;DHT22;13256;49.012;8.610;2023-05-16T16:22:57;15.50;99.90
25320;DHT22;13256;49.012;8.610;2023-05-16T16:25:25;15.50;99.90
25320;DHT22;13256;49.012;8.610;2023-05-16T16:27:54;15.50;99.90
25320;DHT22;13256;49.012;8.610;2023-05-16T16:30:21;15.50;99.90
25320;DHT22;13256;49.012;8.610;2023-05-16T16:32:50;15.50;99.90
25320;DHT22;13256;49.012;8.610;2023-05-16T16:59:18;15.50;99.90
25320;DHT22;13256;49.012;8.610;2023-05-16T17:01:46;15.50;99.90
25320;DHT22;13256;49.012;8.610;2023-05-16T17:04:14;15.50;99.90
25320;DHT22;13256;49.012;8.610;2023-05-16T17:06:42;15.40;99.90
25320;DHT22;13256;49.012;8.610;2023-05-16T17:09:11;15.40;99.90
25320;DHT22;13256;49.012;8.610;2023-05-16T17:12:05;15.40;99.90
25320;DHT22;13256;49.012;8.610;2023-05-16T17:14:48;15.40;99.90
25320;DHT22;13256;49.012;8.610;2023-05-16T17:17:16;15.40;99.90
25320;DHT22;13256;49.012;8.610;2023-05-16T17:19:51;15.40;99.40
25320;DHT22;13256;49.012;8.610;2023-05-16T17:26:06;15.50;98.80
25320;DHT22;13256;49.012;8.610;2023-05-16T17:28:36;15.40;99.20
25320;DHT22;13256;49.012;8.610;2023-05-16T17:31:06;15.40;98.90